Meteo Giornale » Osservazioni meteo Italia » Perugia

ore: 06:20 - Osservazioni Meteo Perugia
Lat. 43° 5' N Lon. 12° 30' E Alt. 208 metri s.l.m.

sereno Europe/Rome

23 °C

Sereno

Temp. 24 Ore

20 °C

35 °C

Nord/Nord-Est

11.1 Km/h

Dew point 20 °C

Umidità 83 %

Visibilità  10 Km

Il sole sorge alle ore 06:17

Il sole tramonta alle ore 20:10

Data e Ora Cielo e Fenomeni T °C DP °C Um. % Pres. hPa Vis. km Vento km/h
Oggi h: 06:20 sereno Sereno 23 20 83 1010 10 N/NE 11.1
Oggi h: 05:50 poco_nuvoloso Poco Nuvoloso 23 20 83 1011 10 S/SO 7.4
Oggi h: 05:20 poco_nuvoloso Poco Nuvoloso 23 20 83 1010 10 E/SE 7.4
Oggi h: 04:50 sereno Sereno 23 20 83 1011 10 E/NE 9.3
Oggi h: 04:20 nuvoloso Nuvoloso 23 20 83 1013 10 O/NO 7.4
Oggi h: 03:50 poco_nuvoloso Poco Nuvoloso 23 20 83 1012 10 N 5.5
Oggi h: 03:20 sereno Sereno 23 20 83 1012 10 NE 7.4
Oggi h: 02:50 sereno Sereno 24 20 78 1012 10 N 3.7
Oggi h: 02:20 sereno Sereno 24 21 83 1012 10 N 1.8
Oggi h: 01:50 sereno Sereno 25 21 78 1012 10 N 3.7
Oggi h: 01:20 sereno Sereno 26 20 69 1012 10 N 3.7
Oggi h: 00:50 sereno Sereno 27 21 69 1012 10 N 5.5
Oggi h: 00:20 sereno Sereno 27 21 69 1013 10 N 3.7
Ieri h: 23:50 sereno Sereno 27 20 65 1013 10 S/SO 9.3
Ieri h: 23:20 sereno Sereno 28 21 65 1013 10 S/SO 9.3
Ieri h: 22:50 sereno Sereno 29 20 58 1013 10 N 5.5
Ieri h: 22:20 sereno Sereno 29 21 62 1013 10 N 5.5
Ieri h: 21:50 sereno Sereno 30 21 58 1012 10 O 18.5
Ieri h: 21:20 sereno Sereno 31 18 45 1012 10 O 16.7
Ieri h: 20:50 sereno Sereno 31 17 43 1011 10 S/SO 14.8
Ieri h: 20:20 sereno Sereno 32 17 40 1011 10 N 5.5
Ieri h: 19:50 sereno Sereno 33 16 36 1011 10 N 5.5
Ieri h: 19:20 sereno Sereno 34 16 34 1011 10 N 5.5
Ieri h: 18:50 sereno Sereno 35 16 32 1011 10 SE 9.3
Ieri h: 18:20 sereno Sereno 35 16 32 1011 10 N 3.7
Ieri h: 17:50 sereno Sereno 35 16 32 1011 10 N 5.5
Ieri h: 17:20 sereno Sereno 35 15 30 1011 10 S 7.4
Ieri h: 16:50 sereno Sereno 35 16 32 1012 10 N/NO 7.4
Ieri h: 16:20 sereno Sereno 35 16 32 1012 10 E 7.4
Ieri h: 15:50 sereno Sereno 35 16 32 1012 10 O/SO 9.3
Ieri h: 15:20 sereno Sereno 35 17 34 1013 10 NO 7.4
Ieri h: 14:50 sereno Sereno 34 16 34 1013 10 O 16.7
Ieri h: 14:20 sereno Sereno 34 16 34 1013 10 O 16.7
Ieri h: 13:50 sereno Sereno 34 14 30 1013 10 N 9.3
Ieri h: 13:20 sereno Sereno 33 16 36 1013 10 N 7.4
Ieri h: 12:50 sereno Sereno 32 16 38 1013 10 S 9.3
Ieri h: 12:20 sereno Sereno 31 17 43 1013 10 N 3.7
Ieri h: 11:50 sereno Sereno 31 18 45 1013 10 N 5.5
Ieri h: 11:20 sereno Sereno 30 19 51 1013 10 N 5.5
Ieri h: 10:50 poco_nuvoloso Poco Nuvoloso 29 19 54 1013 10 S/SE 7.4
Ieri h: 10:20 sereno Sereno 28 20 61 1013 10 N 5.5
Ieri h: 09:50 sereno Sereno 26 21 73 1014 10 N 5.5
Ieri h: 09:20 sereno Sereno 25 20 73 1014 10 N 3.7
Ieri h: 08:50 sereno Sereno 24 19 73 1014 10 N 3.7
Ieri h: 08:20 sereno Sereno 23 19 78 1014 10 NE 7.4
Ieri h: 07:50 sereno Sereno 22 19 83 1014 10 NE 7.4
Ieri h: 07:20 sereno Sereno 20 19 93 1014 10 N 3.7
Ieri h: 06:50 sereno Sereno 20 19 93 1014 10 N/NE 7.4